createdAt,value
2017-04-30T00:00:11.918Z,0
2017-04-30T00:01:21.515Z,0
2017-04-30T00:02:30.730Z,0
2017-04-30T00:03:39.942Z,0
2017-04-30T00:04:49.150Z,0
2017-04-30T00:05:58.693Z,0
2017-04-30T00:07:08.055Z,0
2017-04-30T00:08:17.917Z,0
2017-04-30T00:09:27.778Z,0
2017-04-30T00:10:36.991Z,0
2017-04-30T00:11:45.877Z,0
2017-04-30T00:12:55.245Z,0
2017-04-30T00:14:04.783Z,0
2017-04-30T00:15:14.317Z,0
2017-04-30T00:16:23.531Z,0
2017-04-30T00:17:33.067Z,0
2017-04-30T00:18:42.653Z,0
2017-04-30T00:19:51.543Z,0
2017-04-30T00:21:00.427Z,0
2017-04-30T00:22:09.959Z,0
2017-04-30T00:23:19.821Z,0
2017-04-30T00:24:29.731Z,0
2017-04-30T00:25:38.943Z,0
2017-04-30T00:26:48.162Z,0
2017-04-30T00:27:57.694Z,0
2017-04-30T00:29:07.232Z,0
2017-04-30T00:30:17.073Z,0
2017-04-30T00:31:25.955Z,0
2017-04-30T00:32:35.214Z,0
2017-04-30T00:33:45.073Z,0
2017-04-30T00:34:54.290Z,0
2017-04-30T00:36:03.234Z,0
2017-04-30T00:37:12.122Z,0
2017-04-30T00:38:21.346Z,0
2017-04-30T00:39:31.209Z,0
2017-04-30T00:40:40.096Z,0
2017-04-30T00:41:50.043Z,0
2017-04-30T00:42:59.579Z,0
2017-04-30T00:44:09.439Z,0
2017-04-30T00:45:18.325Z,0
2017-04-30T00:46:27.215Z,0
2017-04-30T00:47:36.203Z,0
2017-04-30T00:48:45.412Z,0
2017-04-30T00:49:54.296Z,0
2017-04-30T00:51:03.878Z,0
2017-04-30T00:52:12.766Z,0
2017-04-30T00:53:21.807Z,0
2017-04-30T00:54:31.348Z,0
2017-04-30T00:55:40.565Z,0
2017-04-30T00:56:50.102Z,0
2017-04-30T00:57:58.985Z,0
2017-04-30T00:59:08.672Z,0
2017-04-30T01:00:17.880Z,0
2017-04-30T01:01:26.766Z,0
2017-04-30T01:02:36.297Z,0
2017-04-30T01:03:45.179Z,0
2017-04-30T01:04:54.536Z,0
2017-04-30T01:06:03.421Z,0
2017-04-30T01:07:12.303Z,0
2017-04-30T01:08:21.835Z,0
2017-04-30T01:09:31.375Z,0
2017-04-30T01:10:40.358Z,0
2017-04-30T01:11:49.242Z,0
2017-04-30T01:12:58.783Z,0
2017-04-30T01:14:08.643Z,0
2017-04-30T01:15:17.852Z,0
2017-04-30T01:16:26.885Z,0
2017-04-30T01:17:35.766Z,0
2017-04-30T01:18:45.629Z,0
2017-04-30T01:19:54.851Z,0
2017-04-30T01:21:04.062Z,0
2017-04-30T01:22:13.596Z,0
2017-04-30T01:23:23.139Z,0
2017-04-30T01:24:32.679Z,0
2017-04-30T01:25:41.564Z,0
2017-04-30T01:26:50.458Z,0
2017-04-30T01:28:00.377Z,0
2017-04-30T01:29:09.912Z,0
2017-04-30T01:30:19.122Z,0
2017-04-30T01:31:28.012Z,0
2017-04-30T01:32:37.549Z,0
2017-04-30T01:33:47.231Z,0
2017-04-30T01:34:56.115Z,0
2017-04-30T01:36:05.647Z,0
2017-04-30T01:37:14.852Z,0
2017-04-30T01:38:24.389Z,0
2017-04-30T01:39:33.750Z,0
2017-04-30T01:40:42.958Z,0
2017-04-30T01:41:52.168Z,0
2017-04-30T01:43:01.721Z,0
2017-04-30T01:44:10.934Z,0
2017-04-30T01:45:20.770Z,0
2017-04-30T01:46:29.663Z,0
2017-04-30T01:47:38.873Z,0
2017-04-30T01:48:48.088Z,0
2017-04-30T01:49:57.624Z,0
2017-04-30T01:51:07.310Z,0
2017-04-30T01:52:16.517Z,0
2017-04-30T01:53:26.391Z,0
2017-04-30T01:54:35.932Z,0
2017-04-30T01:55:45.141Z,0
2017-04-30T01:56:54.531Z,0
2017-04-30T01:58:03.758Z,0
2017-04-30T01:59:13.942Z,0
2017-04-30T02:00:23.152Z,0
2017-04-30T02:01:32.366Z,0
2017-04-30T02:02:42.050Z,0
2017-04-30T02:03:50.942Z,0
2017-04-30T02:04:59.826Z,0
2017-04-30T02:06:09.035Z,0
2017-04-30T02:07:17.918Z,0
2017-04-30T02:08:27.610Z,0
2017-04-30T02:09:37.149Z,0
2017-04-30T02:10:46.033Z,0
2017-04-30T02:11:54.914Z,0
2017-04-30T02:13:04.141Z,0
2017-04-30T02:14:13.931Z,0
2017-04-30T02:15:23.140Z,0
2017-04-30T02:16:32.023Z,0
2017-04-30T02:17:41.557Z,0
2017-04-30T02:18:50.765Z,0
2017-04-30T02:20:00.130Z,0
2017-04-30T02:21:09.339Z,0
2017-04-30T02:22:18.226Z,0
2017-04-30T02:23:27.440Z,0
2017-04-30T02:24:36.650Z,0
2017-04-30T02:25:46.509Z,0
2017-04-30T02:26:55.401Z,0
2017-04-30T02:28:04.940Z,0
2017-04-30T02:29:13.826Z,0
2017-04-30T02:30:22.714Z,0
2017-04-30T02:31:31.974Z,0
2017-04-30T02:32:41.831Z,0
2017-04-30T02:33:50.715Z,0
2017-04-30T02:34:59.959Z,0
2017-04-30T02:36:09.502Z,0
2017-04-30T02:37:18.866Z,0
2017-04-30T02:38:28.400Z,0
2017-04-30T02:39:37.613Z,0
2017-04-30T02:40:47.146Z,0
2017-04-30T02:41:56.351Z,0
2017-04-30T02:43:06.370Z,0
2017-04-30T02:44:15.907Z,0
2017-04-30T02:45:25.113Z,0
2017-04-30T02:46:33.998Z,0
2017-04-30T02:47:43.212Z,0
2017-04-30T02:48:52.733Z,0
2017-04-30T02:50:02.271Z,0
2017-04-30T02:51:12.133Z,0
2017-04-30T02:52:21.345Z,0
2017-04-30T02:53:30.879Z,0
2017-04-30T02:54:40.239Z,0
2017-04-30T02:55:49.123Z,0
2017-04-30T02:56:58.337Z,0
2017-04-30T02:58:07.226Z,0
2017-04-30T02:59:16.437Z,0
2017-04-30T03:00:25.373Z,0
2017-04-30T03:01:34.585Z,0
2017-04-30T03:02:43.794Z,0
2017-04-30T03:03:53.653Z,0
2017-04-30T03:05:03.190Z,0
2017-04-30T03:06:12.452Z,0
2017-04-30T03:07:21.660Z,0
2017-04-30T03:08:30.873Z,0
2017-04-30T03:09:39.758Z,0
2017-04-30T03:10:48.981Z,0
2017-04-30T03:11:58.669Z,0
2017-04-30T03:13:07.557Z,0
2017-04-30T03:14:16.766Z,0
2017-04-30T03:15:25.974Z,0
2017-04-30T03:16:34.857Z,0
2017-04-30T03:17:45.195Z,0
2017-04-30T03:18:54.727Z,0
2017-04-30T03:20:04.265Z,0
2017-04-30T03:21:13.477Z,0
2017-04-30T03:22:22.686Z,0
2017-04-30T03:23:32.372Z,0
2017-04-30T03:24:41.580Z,0
2017-04-30T03:25:50.784Z,0
2017-04-30T03:26:59.991Z,0
2017-04-30T03:28:09.205Z,0
2017-04-30T03:29:18.724Z,0
2017-04-30T03:30:27.931Z,0
2017-04-30T03:31:36.816Z,0
2017-04-30T03:32:46.029Z,0
2017-04-30T03:33:55.566Z,0
2017-04-30T03:35:05.152Z,0
2017-04-30T03:36:15.022Z,0
2017-04-30T03:37:24.241Z,0
2017-04-30T03:38:33.777Z,0
2017-04-30T03:39:42.697Z,0
2017-04-30T03:40:52.057Z,0
2017-04-30T03:42:01.593Z,0
2017-04-30T03:43:10.809Z,0
2017-04-30T03:44:20.019Z,0
2017-04-30T03:45:28.903Z,5
2017-04-30T03:46:38.591Z,5
2017-04-30T03:47:47.808Z,5
2017-04-30T03:48:57.343Z,5
2017-04-30T03:50:06.235Z,5
2017-04-30T03:51:15.117Z,5
2017-04-30T03:52:24.755Z,5
2017-04-30T03:53:34.292Z,10
2017-04-30T03:54:44.153Z,10
2017-04-30T03:55:53.036Z,10
2017-04-30T03:57:02.245Z,10
2017-04-30T03:58:11.963Z,15
2017-04-30T03:59:21.501Z,15
2017-04-30T04:00:30.389Z,15
2017-04-30T04:01:39.600Z,15
2017-04-30T04:02:48.812Z,20
2017-04-30T04:03:58.275Z,20
2017-04-30T04:05:07.818Z,20
2017-04-30T04:06:16.707Z,20
2017-04-30T04:07:25.917Z,25
2017-04-30T04:08:35.454Z,25
2017-04-30T04:09:44.664Z,30
2017-04-30T04:10:53.549Z,30
2017-04-30T04:12:02.760Z,30
2017-04-30T04:13:12.296Z,35
2017-04-30T04:14:21.844Z,35
2017-04-30T04:15:31.211Z,35
2017-04-30T04:16:40.423Z,40
2017-04-30T04:17:49.963Z,40
2017-04-30T04:18:58.855Z,45
2017-04-30T04:20:08.066Z,45
2017-04-30T04:21:17.252Z,45
2017-04-30T04:22:26.784Z,50
2017-04-30T04:23:35.996Z,50
2017-04-30T04:24:45.857Z,50
2017-04-30T04:25:54.740Z,55
2017-04-30T04:27:04.656Z,55
2017-04-30T04:28:13.871Z,55
2017-04-30T04:29:23.081Z,60
2017-04-30T04:30:31.973Z,60
2017-04-30T04:31:40.862Z,65
2017-04-30T04:32:49.853Z,65
2017-04-30T04:33:59.071Z,65
2017-04-30T04:35:07.957Z,70
2017-04-30T04:36:17.170Z,70
2017-04-30T04:37:26.061Z,70
2017-04-30T04:38:35.329Z,75
2017-04-30T04:39:44.542Z,75
2017-04-30T04:40:53.756Z,75
2017-04-30T04:42:02.964Z,80
2017-04-30T04:43:12.189Z,80
2017-04-30T04:44:21.837Z,80
2017-04-30T04:45:31.377Z,85
2017-04-30T04:46:40.910Z,85
2017-04-30T04:47:50.119Z,85
2017-04-30T04:48:59.004Z,90
2017-04-30T04:50:07.942Z,90
2017-04-30T04:51:16.824Z,90
2017-04-30T04:52:26.031Z,90
2017-04-30T04:53:35.572Z,95
2017-04-30T04:54:45.117Z,95
2017-04-30T04:55:54.479Z,95
2017-04-30T04:57:03.699Z,100
2017-04-30T04:58:13.233Z,100
2017-04-30T04:59:22.449Z,100
2017-04-30T05:00:31.669Z,100
2017-04-30T05:01:40.928Z,105
2017-04-30T05:02:50.473Z,105
2017-04-30T05:03:59.686Z,105
2017-04-30T05:05:09.549Z,105
2017-04-30T05:06:18.439Z,110
2017-04-30T05:07:27.482Z,110
2017-04-30T05:08:36.698Z,110
2017-04-30T05:09:45.912Z,110
2017-04-30T05:10:55.126Z,110
2017-04-30T05:12:04.022Z,115
2017-04-30T05:13:13.883Z,115
2017-04-30T05:14:23.432Z,115
2017-04-30T05:15:32.321Z,115
2017-04-30T05:16:41.209Z,115
2017-04-30T05:17:50.744Z,120
2017-04-30T05:19:00.009Z,120
2017-04-30T05:20:08.896Z,120
2017-04-30T05:21:18.112Z,120
2017-04-30T05:22:26.999Z,120
2017-04-30T05:23:35.889Z,125
2017-04-30T05:24:45.777Z,125
2017-04-30T05:25:54.661Z,125
2017-04-30T05:27:04.207Z,125
2017-04-30T05:28:13.750Z,125
2017-04-30T05:29:22.639Z,125
2017-04-30T05:30:31.677Z,130
2017-04-30T05:31:40.895Z,130
2017-04-30T05:32:50.434Z,130
2017-04-30T05:33:59.973Z,130
2017-04-30T05:35:09.186Z,130
2017-04-30T05:36:18.700Z,130
2017-04-30T05:37:28.249Z,135
2017-04-30T05:38:37.515Z,135
2017-04-30T05:39:47.381Z,135
2017-04-30T05:40:56.592Z,135
2017-04-30T05:42:06.281Z,135
2017-04-30T05:43:15.830Z,135
2017-04-30T05:44:24.722Z,135
2017-04-30T05:45:33.935Z,140
2017-04-30T05:46:42.823Z,140
2017-04-30T05:47:52.509Z,140
2017-04-30T05:49:02.378Z,140
2017-04-30T05:50:11.263Z,140
2017-04-30T05:51:20.150Z,140
2017-04-30T05:52:29.035Z,145
2017-04-30T05:53:38.081Z,145
2017-04-30T05:54:46.969Z,145
2017-04-30T05:55:56.181Z,145
2017-04-30T05:57:05.398Z,145
2017-04-30T05:58:14.293Z,145
2017-04-30T05:59:23.834Z,145
2017-04-30T06:00:33.050Z,145
2017-04-30T06:01:41.946Z,145
2017-04-30T06:02:51.163Z,145
2017-04-30T06:04:00.703Z,150
2017-04-30T06:05:09.641Z,145
2017-04-30T06:06:19.179Z,150
2017-04-30T06:07:28.391Z,150
2017-04-30T06:08:37.936Z,145
2017-04-30T06:09:46.832Z,145
2017-04-30T06:10:56.049Z,145
2017-04-30T06:12:04.943Z,145
2017-04-30T06:13:14.156Z,145
2017-04-30T06:14:23.705Z,150
2017-04-30T06:15:32.923Z,150
2017-04-30T06:16:41.812Z,150
2017-04-30T06:17:51.027Z,150
2017-04-30T06:19:00.565Z,150
2017-04-30T06:20:09.465Z,150
2017-04-30T06:21:19.006Z,150
2017-04-30T06:22:28.470Z,150
2017-04-30T06:23:37.368Z,150
2017-04-30T06:24:46.908Z,150
2017-04-30T06:25:56.453Z,150
2017-04-30T06:27:05.667Z,155
2017-04-30T06:28:14.931Z,155
2017-04-30T06:29:24.470Z,155
2017-04-30T06:30:33.362Z,155
2017-04-30T06:31:42.254Z,155
2017-04-30T06:32:51.802Z,155
2017-04-30T06:34:01.174Z,155
2017-04-30T06:35:10.059Z,155
2017-04-30T06:36:18.963Z,155
2017-04-30T06:37:27.851Z,155
2017-04-30T06:38:37.397Z,155
2017-04-30T06:39:46.820Z,155
2017-04-30T06:40:56.031Z,155
2017-04-30T06:42:05.247Z,160
2017-04-30T06:43:14.463Z,160
2017-04-30T06:44:24.332Z,160
2017-04-30T06:45:34.125Z,160
2017-04-30T06:46:43.013Z,160
2017-04-30T06:47:52.554Z,160
2017-04-30T06:49:01.768Z,160
2017-04-30T06:50:10.661Z,160
2017-04-30T06:51:19.699Z,160
2017-04-30T06:52:28.590Z,160
2017-04-30T06:53:37.814Z,160
2017-04-30T06:54:46.704Z,160
2017-04-30T06:55:55.922Z,160
2017-04-30T06:57:04.913Z,165
2017-04-30T06:58:14.464Z,165
2017-04-30T06:59:24.652Z,165
2017-04-30T07:00:33.865Z,165
2017-04-30T07:01:42.762Z,165
2017-04-30T07:02:52.125Z,165
2017-04-30T07:04:01.667Z,165
2017-04-30T07:05:10.557Z,165
2017-04-30T07:06:19.445Z,165
2017-04-30T07:07:28.667Z,165
2017-04-30T07:08:37.975Z,170
2017-04-30T07:09:47.512Z,165
2017-04-30T07:10:57.052Z,170
2017-04-30T07:12:06.278Z,170
2017-04-30T07:13:15.818Z,170
2017-04-30T07:14:25.834Z,170
2017-04-30T07:15:34.729Z,170
2017-04-30T07:16:43.946Z,175
2017-04-30T07:17:53.811Z,170
2017-04-30T07:19:03.683Z,170
2017-04-30T07:20:12.634Z,170
2017-04-30T07:21:21.524Z,170
2017-04-30T07:22:30.417Z,170
2017-04-30T07:23:39.638Z,175
2017-04-30T07:24:48.853Z,175
2017-04-30T07:25:58.128Z,175
2017-04-30T07:27:07.017Z,175
2017-04-30T07:28:16.232Z,175
2017-04-30T07:29:25.781Z,175
2017-04-30T07:30:35.323Z,175
2017-04-30T07:31:44.417Z,175
2017-04-30T07:32:53.314Z,175
2017-04-30T07:34:02.859Z,175
2017-04-30T07:35:11.747Z,175
2017-04-30T07:36:21.292Z,180
2017-04-30T07:37:30.657Z,175
2017-04-30T07:38:40.196Z,180
2017-04-30T07:39:49.743Z,180
2017-04-30T07:40:58.961Z,180
2017-04-30T07:42:08.174Z,180
2017-04-30T07:43:17.221Z,180
2017-04-30T07:44:26.765Z,180
2017-04-30T07:45:35.990Z,180
2017-04-30T07:46:45.221Z,180
2017-04-30T07:47:54.767Z,180
2017-04-30T07:49:04.462Z,180
2017-04-30T07:50:13.357Z,180
2017-04-30T07:51:22.574Z,185
2017-04-30T07:52:32.116Z,185
2017-04-30T07:53:41.011Z,185
2017-04-30T07:54:50.259Z,185
2017-04-30T07:55:59.151Z,185
2017-04-30T07:57:08.040Z,180
2017-04-30T07:58:17.918Z,180
2017-04-30T07:59:27.842Z,180
2017-04-30T08:00:37.437Z,180
2017-04-30T08:01:46.660Z,180
2017-04-30T08:02:55.888Z,180
2017-04-30T08:04:05.762Z,180
2017-04-30T08:05:14.650Z,180
2017-04-30T08:06:24.020Z,180
2017-04-30T08:07:33.560Z,180
2017-04-30T08:08:42.784Z,185
2017-04-30T08:09:52.324Z,185
2017-04-30T08:11:01.550Z,185
2017-04-30T08:12:10.597Z,185
2017-04-30T08:13:19.821Z,185
2017-04-30T08:14:29.701Z,185
2017-04-30T08:15:38.922Z,185
2017-04-30T08:16:47.813Z,185
2017-04-30T08:17:57.184Z,185
2017-04-30T08:19:06.763Z,185
2017-04-30T08:20:15.991Z,185
2017-04-30T08:21:25.207Z,190
2017-04-30T08:22:34.099Z,190
2017-04-30T08:23:43.615Z,190
2017-04-30T08:24:53.154Z,190
2017-04-30T08:26:02.702Z,190
2017-04-30T08:27:11.924Z,190
2017-04-30T08:28:21.156Z,190
2017-04-30T08:29:31.075Z,190
2017-04-30T08:30:40.618Z,190
2017-04-30T08:31:49.514Z,190
2017-04-30T08:32:59.062Z,190
2017-04-30T08:34:08.630Z,190
2017-04-30T08:35:17.579Z,190
2017-04-30T08:36:26.473Z,190
2017-04-30T08:37:36.021Z,195
2017-04-30T08:38:45.567Z,195
2017-04-30T08:39:54.462Z,195
2017-04-30T08:41:03.824Z,195
2017-04-30T08:42:12.720Z,195
2017-04-30T08:43:21.629Z,195
2017-04-30T08:44:30.855Z,195
2017-04-30T08:45:40.394Z,195
2017-04-30T08:46:50.416Z,195
2017-04-30T08:48:00.292Z,195
2017-04-30T08:49:09.841Z,195
2017-04-30T08:50:19.058Z,195
2017-04-30T08:51:27.954Z,195
2017-04-30T08:52:37.226Z,195
2017-04-30T08:53:47.101Z,195
2017-04-30T08:54:56.647Z,195
2017-04-30T08:56:06.523Z,200
2017-04-30T08:57:15.412Z,200
2017-04-30T08:58:24.782Z,200
2017-04-30T08:59:34.006Z,200
2017-04-30T09:00:43.226Z,200
2017-04-30T09:01:52.124Z,200
2017-04-30T09:03:01.341Z,200
2017-04-30T09:04:10.531Z,200
2017-04-30T09:05:19.755Z,200
2017-04-30T09:06:28.973Z,200
2017-04-30T09:07:38.848Z,200
2017-04-30T09:08:48.072Z,200
2017-04-30T09:09:57.926Z,200
2017-04-30T09:11:07.147Z,200
2017-04-30T09:12:16.044Z,205
2017-04-30T09:13:26.286Z,205
2017-04-30T09:14:35.879Z,205
2017-04-30T09:15:45.252Z,205
2017-04-30T09:16:54.797Z,205
2017-04-30T09:18:04.343Z,205
2017-04-30T09:19:13.894Z,205
2017-04-30T09:20:23.111Z,205
2017-04-30T09:21:32.150Z,205
2017-04-30T09:22:41.043Z,205
2017-04-30T09:23:49.946Z,205
2017-04-30T09:24:59.167Z,205
2017-04-30T09:26:08.384Z,205
2017-04-30T09:27:17.333Z,205
2017-04-30T09:28:26.878Z,205
2017-04-30T09:29:36.102Z,205
2017-04-30T09:30:45.337Z,205
2017-04-30T09:31:54.893Z,205
2017-04-30T09:33:04.643Z,205
2017-04-30T09:34:13.535Z,205
2017-04-30T09:35:22.431Z,210
2017-04-30T09:36:31.328Z,210
2017-04-30T09:37:40.551Z,210
2017-04-30T09:38:49.820Z,210
2017-04-30T09:39:58.719Z,210
2017-04-30T09:41:07.937Z,210
2017-04-30T09:42:16.832Z,210
2017-04-30T09:43:25.728Z,210
2017-04-30T09:44:35.423Z,210
2017-04-30T09:45:44.972Z,210
2017-04-30T09:46:53.868Z,215
2017-04-30T09:48:03.740Z,215
2017-04-30T09:49:13.292Z,215
2017-04-30T09:50:22.514Z,215
2017-04-30T09:51:31.408Z,215
2017-04-30T09:52:40.958Z,215
2017-04-30T09:53:50.189Z,215
2017-04-30T09:55:00.064Z,215
2017-04-30T09:56:09.765Z,215
2017-04-30T09:57:18.989Z,215
2017-04-30T09:58:28.536Z,220
2017-04-30T09:59:37.755Z,220
2017-04-30T10:00:46.651Z,220
2017-04-30T10:01:55.795Z,220
2017-04-30T10:03:04.689Z,220
2017-04-30T10:04:14.234Z,225
2017-04-30T10:05:23.450Z,225
2017-04-30T10:06:32.668Z,225
2017-04-30T10:07:41.711Z,225
2017-04-30T10:08:50.612Z,230
2017-04-30T10:09:59.836Z,230
2017-04-30T10:11:09.059Z,230
2017-04-30T10:12:18.276Z,230
2017-04-30T10:13:27.924Z,235
2017-04-30T10:14:37.797Z,235
2017-04-30T10:15:47.022Z,235
2017-04-30T10:16:55.916Z,235
2017-04-30T10:18:05.138Z,240
2017-04-30T10:19:14.508Z,240
2017-04-30T10:20:23.726Z,245
2017-04-30T10:21:32.949Z,240
2017-04-30T10:22:42.492Z,250
2017-04-30T10:23:51.721Z,245
2017-04-30T10:25:01.424Z,245
2017-04-30T10:26:11.624Z,250
2017-04-30T10:27:20.847Z,250
2017-04-30T10:28:30.408Z,250
2017-04-30T10:29:39.953Z,255
2017-04-30T10:30:49.003Z,255
2017-04-30T10:31:57.897Z,260
2017-04-30T10:33:06.798Z,260
2017-04-30T10:34:16.044Z,265
2017-04-30T10:35:25.623Z,265
2017-04-30T10:36:34.568Z,265
2017-04-30T10:37:43.789Z,265
2017-04-30T10:38:53.009Z,265
2017-04-30T10:40:02.557Z,265
2017-04-30T10:41:11.452Z,265
2017-04-30T10:42:20.494Z,270
2017-04-30T10:43:30.368Z,270
2017-04-30T10:44:40.239Z,275
2017-04-30T10:45:49.138Z,275
2017-04-30T10:46:58.361Z,275
2017-04-30T10:48:08.058Z,280
2017-04-30T10:49:17.278Z,280
2017-04-30T10:50:26.822Z,285
2017-04-30T10:51:36.046Z,285
2017-04-30T10:52:45.924Z,285
2017-04-30T10:53:55.244Z,290
2017-04-30T10:55:05.121Z,295
2017-04-30T10:56:14.018Z,305
2017-04-30T10:57:23.894Z,300
2017-04-30T10:58:33.114Z,305
2017-04-30T10:59:43.171Z,305
2017-04-30T11:00:52.391Z,305
2017-04-30T11:02:01.286Z,305
2017-04-30T11:03:10.834Z,310
2017-04-30T11:04:20.057Z,310
2017-04-30T11:05:29.751Z,310
2017-04-30T11:06:38.966Z,310
2017-04-30T11:07:48.843Z,310
2017-04-30T11:08:58.395Z,310
2017-04-30T11:10:07.296Z,305
2017-04-30T11:11:16.697Z,310
2017-04-30T11:12:25.595Z,315
2017-04-30T11:13:35.145Z,310
2017-04-30T11:14:44.364Z,315
2017-04-30T11:15:53.960Z,315
2017-04-30T11:17:03.115Z,320
2017-04-30T11:18:12.664Z,320
2017-04-30T11:19:21.887Z,320
2017-04-30T11:20:31.109Z,320
2017-04-30T11:21:40.005Z,320
2017-04-30T11:22:49.226Z,330
2017-04-30T11:23:58.777Z,340
2017-04-30T11:25:08.003Z,350
2017-04-30T11:26:17.227Z,355
2017-04-30T11:27:26.445Z,355
2017-04-30T11:28:35.973Z,360
2017-04-30T11:29:45.515Z,360
2017-04-30T11:30:54.411Z,365
2017-04-30T11:32:03.632Z,365
2017-04-30T11:33:13.177Z,370
2017-04-30T11:34:22.555Z,380
2017-04-30T11:35:31.779Z,375
2017-04-30T11:36:40.690Z,375
2017-04-30T11:37:50.241Z,375
2017-04-30T11:38:59.462Z,380
2017-04-30T11:40:08.730Z,385
2017-04-30T11:41:18.291Z,385
2017-04-30T11:42:27.514Z,395
2017-04-30T11:43:36.739Z,395
2017-04-30T11:44:45.645Z,395
2017-04-30T11:45:54.697Z,400
2017-04-30T11:47:04.248Z,410
2017-04-30T11:48:14.133Z,425
2017-04-30T11:49:23.356Z,445
2017-04-30T11:50:32.909Z,485
2017-04-30T11:51:42.289Z,1230
2017-04-30T11:52:51.849Z,2695
2017-04-30T11:54:01.722Z,2720
2017-04-30T11:55:10.613Z,2710
2017-04-30T11:56:19.512Z,2970
2017-04-30T11:57:28.712Z,2940
2017-04-30T11:58:37.619Z,2890
2017-04-30T11:59:46.848Z,2940
2017-04-30T12:00:56.072Z,3310
2017-04-30T12:02:04.976Z,3185
2017-04-30T12:03:14.504Z,3205
2017-04-30T12:04:23.733Z,3135
2017-04-30T12:05:32.637Z,3170
2017-04-30T12:06:41.542Z,3000
2017-04-30T12:07:50.447Z,3060
2017-04-30T12:08:59.781Z,3275
2017-04-30T12:10:09.019Z,3165
2017-04-30T12:11:18.243Z,3345
2017-04-30T12:12:27.476Z,3330
2017-04-30T12:13:36.719Z,3105
2017-04-30T12:14:46.101Z,2615
2017-04-30T12:15:55.332Z,2665
2017-04-30T12:17:04.563Z,2620
2017-04-30T12:18:13.800Z,2555
2017-04-30T12:19:23.783Z,2745
2017-04-30T12:20:33.387Z,2890
2017-04-30T12:21:42.939Z,2945
2017-04-30T12:22:51.849Z,2975
2017-04-30T12:24:01.405Z,3035
2017-04-30T12:25:10.313Z,3165
2017-04-30T12:26:19.747Z,3075
2017-04-30T12:27:28.655Z,3130
2017-04-30T12:28:38.537Z,2785
2017-04-30T12:29:47.438Z,2895
2017-04-30T12:30:56.672Z,2930
2017-04-30T12:32:06.420Z,3135
2017-04-30T12:33:15.658Z,3340
2017-04-30T12:34:24.899Z,2980
2017-04-30T12:35:34.128Z,3385
2017-04-30T12:36:43.036Z,3240
2017-04-30T12:37:53.115Z,3280
2017-04-30T12:39:02.020Z,3130
2017-04-30T12:40:10.930Z,3305
2017-04-30T12:41:19.836Z,3185
2017-04-30T12:42:28.741Z,1895
2017-04-30T12:43:38.404Z,3805
2017-04-30T12:44:47.638Z,3475
2017-04-30T12:45:56.883Z,3760
2017-04-30T12:47:06.440Z,3735
2017-04-30T12:48:15.682Z,3555
2017-04-30T12:49:25.007Z,3520
2017-04-30T12:50:34.250Z,3510
2017-04-30T12:51:43.159Z,3310
2017-04-30T12:52:52.390Z,3655
2017-04-30T12:54:01.956Z,3645
2017-04-30T12:55:11.113Z,3745
2017-04-30T12:56:20.342Z,3985
2017-04-30T12:57:29.248Z,3675
2017-04-30T12:58:38.491Z,3650
2017-04-30T12:59:47.729Z,3415
2017-04-30T13:00:57.061Z,3205
2017-04-30T13:02:06.297Z,3260
2017-04-30T13:03:15.856Z,3290
2017-04-30T13:04:25.099Z,3530
2017-04-30T13:05:34.341Z,3715
2017-04-30T13:06:43.953Z,3870
2017-04-30T13:07:53.858Z,3890
2017-04-30T13:09:03.093Z,3635
2017-04-30T13:10:12.010Z,3875
2017-04-30T13:11:21.241Z,3770
2017-04-30T13:12:30.631Z,3760
2017-04-30T13:13:39.546Z,3955
2017-04-30T13:14:49.108Z,3840
2017-04-30T13:15:58.019Z,3605
2017-04-30T13:17:06.964Z,3460
2017-04-30T13:18:16.682Z,3610
2017-04-30T13:19:25.926Z,3850
2017-04-30T13:20:35.496Z,3850
2017-04-30T13:21:44.405Z,3780
2017-04-30T13:22:54.300Z,3635
2017-04-30T13:24:03.690Z,4165
2017-04-30T13:25:13.252Z,3970
2017-04-30T13:26:22.168Z,4530
2017-04-30T13:27:31.404Z,3980
2017-04-30T13:28:40.642Z,3575
2017-04-30T13:29:50.205Z,3775
2017-04-30T13:30:59.772Z,4030
2017-04-30T13:32:08.686Z,3925
2017-04-30T13:33:17.927Z,4025
2017-04-30T13:34:27.815Z,4070
2017-04-30T13:35:37.305Z,4145
2017-04-30T13:36:46.223Z,3895
2017-04-30T13:37:55.468Z,3785
2017-04-30T13:39:04.710Z,3905
2017-04-30T13:40:13.944Z,4040
2017-04-30T13:41:23.209Z,4020
2017-04-30T13:42:32.446Z,3745
2017-04-30T13:43:41.686Z,3790
2017-04-30T13:44:50.927Z,3975
2017-04-30T13:45:59.860Z,3785
2017-04-30T13:47:08.925Z,3850
2017-04-30T13:48:18.827Z,3735
2017-04-30T13:49:28.722Z,3890
2017-04-30T13:50:37.637Z,4230
2017-04-30T13:51:46.879Z,3700
2017-04-30T13:52:57.247Z,3315
2017-04-30T13:54:06.486Z,3635
2017-04-30T13:55:15.397Z,4020
2017-04-30T13:56:24.321Z,3550
2017-04-30T13:57:33.908Z,3970
2017-04-30T13:58:43.251Z,3450
2017-04-30T13:59:52.498Z,3130
2017-04-30T14:01:01.416Z,3220
2017-04-30T14:02:10.655Z,3265
2017-04-30T14:03:19.574Z,2895
2017-04-30T14:04:28.967Z,2725
2017-04-30T14:05:38.201Z,2370
2017-04-30T14:06:47.438Z,1965
2017-04-30T14:07:56.679Z,2435
2017-04-30T14:09:05.923Z,2765
2017-04-30T14:10:15.310Z,3095
2017-04-30T14:11:24.870Z,3080
2017-04-30T14:12:33.784Z,3290
2017-04-30T14:13:42.700Z,3190
2017-04-30T14:14:52.263Z,2525
2017-04-30T14:16:01.221Z,2650
2017-04-30T14:17:10.452Z,2375
2017-04-30T14:18:20.018Z,2105
2017-04-30T14:19:29.584Z,2770
2017-04-30T14:20:38.815Z,3315
2017-04-30T14:21:48.103Z,3640
2017-04-30T14:22:57.664Z,3670
2017-04-30T14:24:06.589Z,3830
2017-04-30T14:25:15.824Z,3415
2017-04-30T14:26:24.737Z,3555
2017-04-30T14:27:34.006Z,3895
2017-04-30T14:28:43.241Z,3595
2017-04-30T14:29:52.479Z,3410
2017-04-30T14:31:01.720Z,3340
2017-04-30T14:32:10.635Z,2895
2017-04-30T14:33:19.552Z,2860
2017-04-30T14:34:29.116Z,3030
2017-04-30T14:35:38.033Z,3240
2017-04-30T14:36:47.277Z,3405
2017-04-30T14:37:56.516Z,3495
2017-04-30T14:39:06.129Z,3410
2017-04-30T14:40:15.037Z,3080
2017-04-30T14:41:23.950Z,3255
2017-04-30T14:42:32.864Z,3670
2017-04-30T14:43:42.429Z,3740
2017-04-30T14:44:51.726Z,3890
2017-04-30T14:46:00.968Z,3725
2017-04-30T14:47:09.884Z,3705
2017-04-30T14:48:19.128Z,3280
2017-04-30T14:49:28.370Z,2555
2017-04-30T14:50:38.514Z,2910
2017-04-30T14:51:47.439Z,3340
2017-04-30T14:52:57.006Z,3230
2017-04-30T14:54:06.248Z,3025
2017-04-30T14:55:15.484Z,2770
2017-04-30T14:56:25.196Z,2580
2017-04-30T14:57:34.110Z,2435
2017-04-30T14:58:43.676Z,2795
2017-04-30T14:59:53.243Z,2705
2017-04-30T15:01:02.806Z,2885
2017-04-30T15:02:12.045Z,3165
2017-04-30T15:03:21.287Z,3045
2017-04-30T15:04:30.855Z,3230
2017-04-30T15:05:39.768Z,3120
2017-04-30T15:06:49.659Z,2985
2017-04-30T15:07:58.773Z,2720
2017-04-30T15:09:08.339Z,2485
2017-04-30T15:10:17.576Z,2575
2017-04-30T15:11:26.489Z,2910
2017-04-30T15:12:35.726Z,3310
2017-04-30T15:13:44.789Z,3110
2017-04-30T15:14:53.704Z,3170
2017-04-30T15:16:03.263Z,3460
2017-04-30T15:17:12.172Z,3455
2017-04-30T15:18:21.406Z,3310
2017-04-30T15:19:31.821Z,3360
2017-04-30T15:20:40.732Z,3405
2017-04-30T15:21:49.970Z,3340
2017-04-30T15:22:59.205Z,3275
2017-04-30T15:24:08.119Z,3195
2017-04-30T15:25:17.084Z,3250
2017-04-30T15:26:25.996Z,3385
2017-04-30T15:27:35.010Z,3260
2017-04-30T15:28:44.259Z,3075
2017-04-30T15:29:53.830Z,3095
2017-04-30T15:31:03.702Z,3300
2017-04-30T15:32:12.619Z,3155
2017-04-30T15:33:22.181Z,3040
2017-04-30T15:34:31.746Z,2865
2017-04-30T15:35:40.985Z,3105
2017-04-30T15:36:49.949Z,3150
2017-04-30T15:37:59.520Z,3185
2017-04-30T15:39:09.748Z,3070
2017-04-30T15:40:18.985Z,3150
2017-04-30T15:41:28.219Z,3060
2017-04-30T15:42:37.719Z,3020
2017-04-30T15:43:46.956Z,2870
2017-04-30T15:44:56.527Z,2850
2017-04-30T15:46:05.441Z,2800
2017-04-30T15:47:14.684Z,2735
2017-04-30T15:48:24.392Z,2775
2017-04-30T15:49:33.633Z,2340
2017-04-30T15:50:42.870Z,1610
2017-04-30T15:51:51.782Z,1720
2017-04-30T15:53:01.348Z,2140
2017-04-30T15:54:10.844Z,1300
2017-04-30T15:55:19.753Z,635
2017-04-30T15:56:28.659Z,615
2017-04-30T15:57:38.218Z,815
2017-04-30T15:58:47.453Z,1545
2017-04-30T15:59:56.515Z,1580
2017-04-30T16:01:05.763Z,995
2017-04-30T16:02:15.002Z,1165
2017-04-30T16:03:24.236Z,1490